sensor_id;sensor_type;location;lat;lon;timestamp;temperature;humidity
3994;DHT22;2011;48.238;13.948;2023-02-07T00:00:46;-3.00;99.80
3994;DHT22;2011;48.238;13.948;2023-02-07T00:03:14;-3.00;99.90
3994;DHT22;2011;48.238;13.948;2023-02-07T00:05:41;-3.00;99.90
3994;DHT22;2011;48.238;13.948;2023-02-07T00:08:08;-3.00;99.90
3994;DHT22;2011;48.238;13.948;2023-02-07T00:10:35;-3.00;99.90
3994;DHT22;2011;48.238;13.948;2023-02-07T00:13:02;-3.00;99.90
3994;DHT22;2011;48.238;13.948;2023-02-07T00:15:30;-3.10;99.90
3994;DHT22;2011;48.238;13.948;2023-02-07T00:17:57;-3.10;99.90
3994;DHT22;2011;48.238;13.948;2023-02-07T00:20:25;-3.10;99.90
3994;DHT22;2011;48.238;13.948;2023-02-07T00:22:52;-3.20;99.90
3994;DHT22;2011;48.238;13.948;2023-02-07T00:25:20;-3.20;99.90
3994;DHT22;2011;48.238;13.948;2023-02-07T00:27:47;-3.20;99.90
3994;DHT22;2011;48.238;13.948;2023-02-07T00:30:14;-3.20;99.90
3994;DHT22;2011;48.238;13.948;2023-02-07T00:32:41;-3.20;99.90
3994;DHT22;2011;48.238;13.948;2023-02-07T00:35:08;-3.20;99.90
3994;DHT22;2011;48.238;13.948;2023-02-07T00:37:37;-3.20;99.90
3994;DHT22;2011;48.238;13.948;2023-02-07T00:40:04;-3.30;99.90
3994;DHT22;2011;48.238;13.948;2023-02-07T00:42:32;-3.30;99.90
3994;DHT22;2011;48.238;13.948;2023-02-07T00:44:59;-3.40;99.90
3994;DHT22;2011;48.238;13.948;2023-02-07T00:47:26;-3.40;99.90
3994;DHT22;2011;48.238;13.948;2023-02-07T00:49:53;-3.40;99.90
3994;DHT22;2011;48.238;13.948;2023-02-07T00:52:20;-3.40;99.90
3994;DHT22;2011;48.238;13.948;2023-02-07T00:54:48;-3.40;99.90
3994;DHT22;2011;48.238;13.948;2023-02-07T00:57:15;-3.40;99.90
3994;DHT22;2011;48.238;13.948;2023-02-07T00:59:42;-3.50;99.90
3994;DHT22;2011;48.238;13.948;2023-02-07T01:02:09;-3.50;99.90
3994;DHT22;2011;48.238;13.948;2023-02-07T01:04:37;-3.50;99.90
3994;DHT22;2011;48.238;13.948;2023-02-07T01:07:04;-3.50;99.90
3994;DHT22;2011;48.238;13.948;2023-02-07T01:09:31;-3.50;99.90
3994;DHT22;2011;48.238;13.948;2023-02-07T01:11:59;-3.50;99.90
3994;DHT22;2011;48.238;13.948;2023-02-07T01:14:26;-3.50;99.90
3994;DHT22;2011;48.238;13.948;2023-02-07T01:16:53;-3.50;99.90
3994;DHT22;2011;48.238;13.948;2023-02-07T01:19:20;-3.50;99.90
3994;DHT22;2011;48.238;13.948;2023-02-07T01:21:47;-3.50;99.90
3994;DHT22;2011;48.238;13.948;2023-02-07T01:24:15;-3.50;99.90
3994;DHT22;2011;48.238;13.948;2023-02-07T01:26:42;-3.50;99.90
3994;DHT22;2011;48.238;13.948;2023-02-07T01:29:13;-3.50;99.90
3994;DHT22;2011;48.238;13.948;2023-02-07T01:31:41;-3.50;99.90
3994;DHT22;2011;48.238;13.948;2023-02-07T01:34:10;-3.50;99.90
3994;DHT22;2011;48.238;13.948;2023-02-07T01:36:39;-3.50;99.90
3994;DHT22;2011;48.238;13.948;2023-02-07T01:39:07;-3.50;99.90
3994;DHT22;2011;48.238;13.948;2023-02-07T01:41:34;-3.50;99.90
3994;DHT22;2011;48.238;13.948;2023-02-07T01:44:04;-3.50;99.90
3994;DHT22;2011;48.238;13.948;2023-02-07T01:46:34;-3.50;99.90
3994;DHT22;2011;48.238;13.948;2023-02-07T01:49:05;-3.40;99.90
3994;DHT22;2011;48.238;13.948;2023-02-07T01:51:34;-3.50;99.90
3994;DHT22;2011;48.238;13.948;2023-02-07T01:54:05;-3.50;99.90
3994;DHT22;2011;48.238;13.948;2023-02-07T01:56:33;-3.50;99.90
3994;DHT22;2011;48.238;13.948;2023-02-07T01:59:03;-3.50;99.90
3994;DHT22;2011;48.238;13.948;2023-02-07T02:01:33;-3.50;99.90
3994;DHT22;2011;48.238;13.948;2023-02-07T02:04:00;-3.50;99.90
3994;DHT22;2011;48.238;13.948;2023-02-07T02:06:29;-3.50;99.90
3994;DHT22;2011;48.238;13.948;2023-02-07T02:08:59;-3.50;99.90
3994;DHT22;2011;48.238;13.948;2023-02-07T02:11:58;-3.50;99.90
3994;DHT22;2011;48.238;13.948;2023-02-07T02:14:51;-3.50;99.90
3994;DHT22;2011;48.238;13.948;2023-02-07T02:17:26;-3.60;99.90
3994;DHT22;2011;48.238;13.948;2023-02-07T02:23:08;-3.60;99.90
3994;DHT22;2011;48.238;13.948;2023-02-07T02:29:11;-3.60;99.90
3994;DHT22;2011;48.238;13.948;2023-02-07T02:32:14;-3.60;99.90
3994;DHT22;2011;48.238;13.948;2023-02-07T02:34:53;-3.60;99.90
3994;DHT22;2011;48.238;13.948;2023-02-07T02:37:29;-3.60;99.90
3994;DHT22;2011;48.238;13.948;2023-02-07T02:40:04;-3.70;99.90
3994;DHT22;2011;48.238;13.948;2023-02-07T02:42:36;-3.70;99.90
3994;DHT22;2011;48.238;13.948;2023-02-07T02:45:11;-3.70;99.90
3994;DHT22;2011;48.238;13.948;2023-02-07T02:47:40;-3.80;99.90
3994;DHT22;2011;48.238;13.948;2023-02-07T02:50:12;-3.80;99.90
3994;DHT22;2011;48.238;13.948;2023-02-07T02:52:39;-3.80;99.90
3994;DHT22;2011;48.238;13.948;2023-02-07T02:55:07;-3.90;99.90
3994;DHT22;2011;48.238;13.948;2023-02-07T02:57:49;-3.90;99.90
3994;DHT22;2011;48.238;13.948;2023-02-07T03:03:28;-4.00;99.90
3994;DHT22;2011;48.238;13.948;2023-02-07T03:06:06;-4.00;99.90
3994;DHT22;2011;48.238;13.948;2023-02-07T03:08:40;-4.00;99.90
3994;DHT22;2011;48.238;13.948;2023-02-07T03:11:14;-4.10;99.90
3994;DHT22;2011;48.238;13.948;2023-02-07T03:13:52;-4.10;99.90
3994;DHT22;2011;48.238;13.948;2023-02-07T03:16:29;-4.10;99.90
3994;DHT22;2011;48.238;13.948;2023-02-07T03:19:00;-4.20;99.90
3994;DHT22;2011;48.238;13.948;2023-02-07T03:21:35;-4.20;99.90
3994;DHT22;2011;48.238;13.948;2023-02-07T03:24:06;-4.20;99.90
3994;DHT22;2011;48.238;13.948;2023-02-07T03:26:34;-4.20;99.90
3994;DHT22;2011;48.238;13.948;2023-02-07T03:29:04;-4.30;99.90
3994;DHT22;2011;48.238;13.948;2023-02-07T03:31:33;-4.30;99.90
3994;DHT22;2011;48.238;13.948;2023-02-07T03:34:07;-4.30;99.90
3994;DHT22;2011;48.238;13.948;2023-02-07T03:36:40;-4.30;99.90
3994;DHT22;2011;48.238;13.948;2023-02-07T03:39:08;-4.30;99.90
3994;DHT22;2011;48.238;13.948;2023-02-07T03:41:40;-4.30;99.90
3994;DHT22;2011;48.238;13.948;2023-02-07T03:44:08;-4.30;99.90
3994;DHT22;2011;48.238;13.948;2023-02-07T03:46:37;-4.40;99.90
3994;DHT22;2011;48.238;13.948;2023-02-07T03:49:05;-4.40;99.90
3994;DHT22;2011;48.238;13.948;2023-02-07T03:51:33;-4.40;99.90
3994;DHT22;2011;48.238;13.948;2023-02-07T03:54:02;-4.40;99.90
3994;DHT22;2011;48.238;13.948;2023-02-07T03:56:29;-4.40;99.90
3994;DHT22;2011;48.238;13.948;2023-02-07T03:58:56;-4.40;99.90
3994;DHT22;2011;48.238;13.948;2023-02-07T04:01:23;-4.40;99.90
3994;DHT22;2011;48.238;13.948;2023-02-07T04:03:50;-4.40;99.90
3994;DHT22;2011;48.238;13.948;2023-02-07T04:06:17;-4.40;99.90
3994;DHT22;2011;48.238;13.948;2023-02-07T04:08:44;-4.40;99.90
3994;DHT22;2011;48.238;13.948;2023-02-07T04:11:12;-4.40;99.90
3994;DHT22;2011;48.238;13.948;2023-02-07T04:13:39;-4.40;99.90
3994;DHT22;2011;48.238;13.948;2023-02-07T04:16:06;-4.40;99.90
3994;DHT22;2011;48.238;13.948;2023-02-07T04:18:33;-4.40;99.90
3994;DHT22;2011;48.238;13.948;2023-02-07T04:21:01;-4.40;99.90
3994;DHT22;2011;48.238;13.948;2023-02-07T04:23:29;-4.40;99.90
3994;DHT22;2011;48.238;13.948;2023-02-07T04:25:56;-4.40;99.90
3994;DHT22;2011;48.238;13.948;2023-02-07T04:28:26;-4.40;99.90
3994;DHT22;2011;48.238;13.948;2023-02-07T04:30:53;-4.40;99.90
3994;DHT22;2011;48.238;13.948;2023-02-07T04:33:21;-4.40;99.90
3994;DHT22;2011;48.238;13.948;2023-02-07T04:35:53;-4.40;99.90
3994;DHT22;2011;48.238;13.948;2023-02-07T04:38:20;-4.40;99.90
3994;DHT22;2011;48.238;13.948;2023-02-07T04:40:47;-4.30;99.90
3994;DHT22;2011;48.238;13.948;2023-02-07T04:43:14;-4.30;99.90
3994;DHT22;2011;48.238;13.948;2023-02-07T04:45:44;-4.30;99.90
3994;DHT22;2011;48.238;13.948;2023-02-07T04:48:11;-4.40;99.90
3994;DHT22;2011;48.238;13.948;2023-02-07T04:50:38;-4.40;99.90
3994;DHT22;2011;48.238;13.948;2023-02-07T04:53:05;-4.30;99.90
3994;DHT22;2011;48.238;13.948;2023-02-07T04:55:32;-4.30;99.90
3994;DHT22;2011;48.238;13.948;2023-02-07T04:58:02;-4.30;99.90
3994;DHT22;2011;48.238;13.948;2023-02-07T05:00:29;-4.20;99.90
3994;DHT22;2011;48.238;13.948;2023-02-07T05:02:57;-4.20;99.90
3994;DHT22;2011;48.238;13.948;2023-02-07T05:05:24;-4.20;99.90
3994;DHT22;2011;48.238;13.948;2023-02-07T05:07:51;-4.20;99.90
3994;DHT22;2011;48.238;13.948;2023-02-07T05:10:18;-4.20;99.90
3994;DHT22;2011;48.238;13.948;2023-02-07T05:12:45;-4.20;99.90
3994;DHT22;2011;48.238;13.948;2023-02-07T05:15:12;-4.20;99.90
3994;DHT22;2011;48.238;13.948;2023-02-07T05:17:39;-4.20;99.90
3994;DHT22;2011;48.238;13.948;2023-02-07T05:20:09;-4.20;99.90
3994;DHT22;2011;48.238;13.948;2023-02-07T05:22:36;-4.20;99.90
3994;DHT22;2011;48.238;13.948;2023-02-07T05:25:03;-4.30;99.90
3994;DHT22;2011;48.238;13.948;2023-02-07T05:27:30;-4.30;99.90
3994;DHT22;2011;48.238;13.948;2023-02-07T05:29:58;-4.30;99.90
3994;DHT22;2011;48.238;13.948;2023-02-07T05:32:25;-4.30;99.90
3994;DHT22;2011;48.238;13.948;2023-02-07T05:35:10;-4.30;99.90
3994;DHT22;2011;48.238;13.948;2023-02-07T05:37:37;-4.40;99.90
3994;DHT22;2011;48.238;13.948;2023-02-07T05:40:05;-4.30;99.90
3994;DHT22;2011;48.238;13.948;2023-02-07T05:42:32;-4.30;99.90
3994;DHT22;2011;48.238;13.948;2023-02-07T05:44:59;-4.30;99.90
3994;DHT22;2011;48.238;13.948;2023-02-07T05:47:26;-4.30;99.90
3994;DHT22;2011;48.238;13.948;2023-02-07T05:49:53;-4.30;99.90
3994;DHT22;2011;48.238;13.948;2023-02-07T05:52:22;-4.30;99.90
3994;DHT22;2011;48.238;13.948;2023-02-07T05:54:49;-4.30;99.90
3994;DHT22;2011;48.238;13.948;2023-02-07T05:57:16;-4.40;99.90
3994;DHT22;2011;48.238;13.948;2023-02-07T05:59:43;-4.40;99.90
3994;DHT22;2011;48.238;13.948;2023-02-07T06:02:11;-4.40;99.90
3994;DHT22;2011;48.238;13.948;2023-02-07T06:04:38;-4.40;99.90
3994;DHT22;2011;48.238;13.948;2023-02-07T06:07:05;-4.50;99.90
3994;DHT22;2011;48.238;13.948;2023-02-07T06:09:34;-4.50;99.90
3994;DHT22;2011;48.238;13.948;2023-02-07T06:12:01;-4.50;99.90
3994;DHT22;2011;48.238;13.948;2023-02-07T06:14:28;-4.50;99.90
3994;DHT22;2011;48.238;13.948;2023-02-07T06:16:55;-4.50;99.90
3994;DHT22;2011;48.238;13.948;2023-02-07T06:19:22;-4.50;99.90
3994;DHT22;2011;48.238;13.948;2023-02-07T06:21:49;-4.50;99.90
3994;DHT22;2011;48.238;13.948;2023-02-07T06:24:19;-4.50;99.90
3994;DHT22;2011;48.238;13.948;2023-02-07T06:26:48;-4.60;99.90
3994;DHT22;2011;48.238;13.948;2023-02-07T06:29:15;-4.60;99.90
3994;DHT22;2011;48.238;13.948;2023-02-07T06:31:42;-4.60;99.90
3994;DHT22;2011;48.238;13.948;2023-02-07T06:34:09;-4.70;99.90
3994;DHT22;2011;48.238;13.948;2023-02-07T06:36:36;-4.70;99.90
3994;DHT22;2011;48.238;13.948;2023-02-07T06:39:03;-4.70;99.90
3994;DHT22;2011;48.238;13.948;2023-02-07T06:41:30;-4.70;99.90
3994;DHT22;2011;48.238;13.948;2023-02-07T06:43:59;-4.70;99.90
3994;DHT22;2011;48.238;13.948;2023-02-07T06:46:26;-4.60;99.90
3994;DHT22;2011;48.238;13.948;2023-02-07T06:48:53;-4.60;99.90
3994;DHT22;2011;48.238;13.948;2023-02-07T06:51:20;-4.50;99.90
3994;DHT22;2011;48.238;13.948;2023-02-07T06:53:47;-4.50;99.90
3994;DHT22;2011;48.238;13.948;2023-02-07T06:56:14;-4.40;99.90
3994;DHT22;2011;48.238;13.948;2023-02-07T06:58:41;-4.40;99.90
3994;DHT22;2011;48.238;13.948;2023-02-07T07:01:09;-4.30;99.90
3994;DHT22;2011;48.238;13.948;2023-02-07T07:03:37;-4.30;99.90
3994;DHT22;2011;48.238;13.948;2023-02-07T07:06:04;-4.20;99.90
3994;DHT22;2011;48.238;13.948;2023-02-07T07:08:31;-4.20;99.90
3994;DHT22;2011;48.238;13.948;2023-02-07T07:10:58;-4.10;99.90
3994;DHT22;2011;48.238;13.948;2023-02-07T07:13:25;-4.00;99.90
3994;DHT22;2011;48.238;13.948;2023-02-07T07:15:52;-4.00;99.90
3994;DHT22;2011;48.238;13.948;2023-02-07T07:18:20;-3.90;99.90
3994;DHT22;2011;48.238;13.948;2023-02-07T07:20:51;-3.90;99.90
3994;DHT22;2011;48.238;13.948;2023-02-07T07:23:19;-3.90;99.90
3994;DHT22;2011;48.238;13.948;2023-02-07T07:25:46;-3.80;99.90
3994;DHT22;2011;48.238;13.948;2023-02-07T07:28:13;-3.70;99.90
3994;DHT22;2011;48.238;13.948;2023-02-07T07:30:40;-3.70;99.90
3994;DHT22;2011;48.238;13.948;2023-02-07T07:33:07;-3.70;99.90
3994;DHT22;2011;48.238;13.948;2023-02-07T07:35:35;-3.60;99.90
3994;DHT22;2011;48.238;13.948;2023-02-07T07:38:02;-3.60;99.90
3994;DHT22;2011;48.238;13.948;2023-02-07T07:40:29;-3.50;99.90
3994;DHT22;2011;48.238;13.948;2023-02-07T07:42:56;-3.50;99.90
3994;DHT22;2011;48.238;13.948;2023-02-07T07:45:23;-3.50;99.90
3994;DHT22;2011;48.238;13.948;2023-02-07T07:47:50;-3.50;99.90
3994;DHT22;2011;48.238;13.948;2023-02-07T07:50:17;-3.40;99.90
3994;DHT22;2011;48.238;13.948;2023-02-07T07:52:46;-3.50;99.90
3994;DHT22;2011;48.238;13.948;2023-02-07T07:55:13;-3.40;99.90
3994;DHT22;2011;48.238;13.948;2023-02-07T07:57:41;-3.40;99.90
3994;DHT22;2011;48.238;13.948;2023-02-07T08:00:08;-3.40;99.90
3994;DHT22;2011;48.238;13.948;2023-02-07T08:02:36;-3.30;99.90
3994;DHT22;2011;48.238;13.948;2023-02-07T08:05:03;-3.30;99.90
3994;DHT22;2011;48.238;13.948;2023-02-07T08:07:30;-3.40;99.90
3994;DHT22;2011;48.238;13.948;2023-02-07T08:09:58;-3.50;99.90
3994;DHT22;2011;48.238;13.948;2023-02-07T08:12:25;-3.50;99.90
3994;DHT22;2011;48.238;13.948;2023-02-07T08:14:52;-3.50;99.90
3994;DHT22;2011;48.238;13.948;2023-02-07T08:17:19;-3.40;99.90
3994;DHT22;2011;48.238;13.948;2023-02-07T08:19:46;-3.40;99.90
3994;DHT22;2011;48.238;13.948;2023-02-07T08:22:13;-3.30;99.90
3994;DHT22;2011;48.238;13.948;2023-02-07T08:24:40;-3.30;99.90
3994;DHT22;2011;48.238;13.948;2023-02-07T08:27:08;-3.20;99.90
3994;DHT22;2011;48.238;13.948;2023-02-07T08:29:35;-3.20;99.90
3994;DHT22;2011;48.238;13.948;2023-02-07T08:32:02;-3.10;99.90
3994;DHT22;2011;48.238;13.948;2023-02-07T08:34:30;-3.00;99.90
3994;DHT22;2011;48.238;13.948;2023-02-07T08:37:02;-2.90;99.90
3994;DHT22;2011;48.238;13.948;2023-02-07T08:39:29;-2.90;99.90
3994;DHT22;2011;48.238;13.948;2023-02-07T08:41:57;-2.80;99.90
3994;DHT22;2011;48.238;13.948;2023-02-07T08:44:26;-2.80;99.90
3994;DHT22;2011;48.238;13.948;2023-02-07T08:46:53;-2.70;99.90
3994;DHT22;2011;48.238;13.948;2023-02-07T08:49:20;-2.60;99.90
3994;DHT22;2011;48.238;13.948;2023-02-07T08:51:47;-2.60;99.90
3994;DHT22;2011;48.238;13.948;2023-02-07T08:54:14;-2.40;99.90
3994;DHT22;2011;48.238;13.948;2023-02-07T08:56:41;-2.30;99.90
3994;DHT22;2011;48.238;13.948;2023-02-07T08:59:08;-2.20;99.90
3994;DHT22;2011;48.238;13.948;2023-02-07T09:01:37;-2.10;99.90
3994;DHT22;2011;48.238;13.948;2023-02-07T09:04:04;-2.10;99.80
3994;DHT22;2011;48.238;13.948;2023-02-07T09:06:31;-2.00;99.90
3994;DHT22;2011;48.238;13.948;2023-02-07T09:08:58;-1.90;99.90
3994;DHT22;2011;48.238;13.948;2023-02-07T09:11:24;-1.80;99.50
3994;DHT22;2011;48.238;13.948;2023-02-07T09:13:51;-1.80;98.90
3994;DHT22;2011;48.238;13.948;2023-02-07T09:16:18;-1.90;98.60
3994;DHT22;2011;48.238;13.948;2023-02-07T09:18:49;-1.90;98.70
3994;DHT22;2011;48.238;13.948;2023-02-07T09:21:17;-1.80;99.10
3994;DHT22;2011;48.238;13.948;2023-02-07T09:23:44;-1.70;99.10
3994;DHT22;2011;48.238;13.948;2023-02-07T09:26:16;-1.70;98.80
3994;DHT22;2011;48.238;13.948;2023-02-07T09:28:43;-1.70;98.20
3994;DHT22;2011;48.238;13.948;2023-02-07T09:31:12;-1.60;98.30
3994;DHT22;2011;48.238;13.948;2023-02-07T09:33:41;-1.50;98.70
3994;DHT22;2011;48.238;13.948;2023-02-07T09:36:17;-1.50;98.40
3994;DHT22;2011;48.238;13.948;2023-02-07T09:38:44;-1.40;98.20
3994;DHT22;2011;48.238;13.948;2023-02-07T09:41:19;-1.40;98.00
3994;DHT22;2011;48.238;13.948;2023-02-07T09:43:55;-1.40;97.70
3994;DHT22;2011;48.238;13.948;2023-02-07T09:46:26;-1.50;97.10
3994;DHT22;2011;48.238;13.948;2023-02-07T09:49:00;-1.50;97.50
3994;DHT22;2011;48.238;13.948;2023-02-07T09:51:32;-1.40;97.90
3994;DHT22;2011;48.238;13.948;2023-02-07T09:54:02;-1.40;97.20
3994;DHT22;2011;48.238;13.948;2023-02-07T09:56:31;-1.40;97.30
3994;DHT22;2011;48.238;13.948;2023-02-07T09:59:03;-1.30;97.30
3994;DHT22;2011;48.238;13.948;2023-02-07T10:01:35;-1.20;97.40
3994;DHT22;2011;48.238;13.948;2023-02-07T10:04:13;-1.20;97.30
3994;DHT22;2011;48.238;13.948;2023-02-07T10:06:49;-1.10;97.20
3994;DHT22;2011;48.238;13.948;2023-02-07T10:09:21;-1.10;96.70
3994;DHT22;2011;48.238;13.948;2023-02-07T10:11:52;-1.10;96.30
3994;DHT22;2011;48.238;13.948;2023-02-07T10:14:30;-1.10;96.50
3994;DHT22;2011;48.238;13.948;2023-02-07T10:17:17;-1.00;96.90
3994;DHT22;2011;48.238;13.948;2023-02-07T10:20:05;-0.90;96.40
3994;DHT22;2011;48.238;13.948;2023-02-07T10:22:49;-0.90;96.50
3994;DHT22;2011;48.238;13.948;2023-02-07T10:25:27;-0.80;97.00
3994;DHT22;2011;48.238;13.948;2023-02-07T10:28:19;-0.70;96.60
3994;DHT22;2011;48.238;13.948;2023-02-07T10:30:53;-0.60;96.70
3994;DHT22;2011;48.238;13.948;2023-02-07T10:33:23;-0.60;96.40
3994;DHT22;2011;48.238;13.948;2023-02-07T10:35:51;-0.50;96.50
3994;DHT22;2011;48.238;13.948;2023-02-07T10:38:27;-0.40;96.50
3994;DHT22;2011;48.238;13.948;2023-02-07T10:41:00;-0.40;96.50
3994;DHT22;2011;48.238;13.948;2023-02-07T10:43:29;-0.30;96.10
3994;DHT22;2011;48.238;13.948;2023-02-07T10:46:00;-0.30;96.00
3994;DHT22;2011;48.238;13.948;2023-02-07T10:48:27;-0.20;96.80
3994;DHT22;2011;48.238;13.948;2023-02-07T10:50:55;-0.10;96.80
3994;DHT22;2011;48.238;13.948;2023-02-07T10:53:44;0.00;96.70
3994;DHT22;2011;48.238;13.948;2023-02-07T10:56:16;0.10;96.60
3994;DHT22;2011;48.238;13.948;2023-02-07T10:58:44;0.10;96.40
3994;DHT22;2011;48.238;13.948;2023-02-07T11:01:18;0.20;95.50
3994;DHT22;2011;48.238;13.948;2023-02-07T11:03:46;0.10;94.70
3994;DHT22;2011;48.238;13.948;2023-02-07T11:06:14;0.00;94.40
3994;DHT22;2011;48.238;13.948;2023-02-07T11:08:43;0.00;94.70
3994;DHT22;2011;48.238;13.948;2023-02-07T11:11:25;0.10;94.90
3994;DHT22;2011;48.238;13.948;2023-02-07T11:13:52;0.10;94.60
3994;DHT22;2011;48.238;13.948;2023-02-07T11:16:22;0.10;94.10
3994;DHT22;2011;48.238;13.948;2023-02-07T11:18:55;0.20;94.50
3994;DHT22;2011;48.238;13.948;2023-02-07T11:21:27;0.20;94.00
3994;DHT22;2011;48.238;13.948;2023-02-07T11:23:58;0.30;94.00
3994;DHT22;2011;48.238;13.948;2023-02-07T11:26:26;0.40;94.40
3994;DHT22;2011;48.238;13.948;2023-02-07T11:29:00;0.50;94.20
3994;DHT22;2011;48.238;13.948;2023-02-07T11:31:29;0.60;94.10
3994;DHT22;2011;48.238;13.948;2023-02-07T11:34:19;0.60;94.20
3994;DHT22;2011;48.238;13.948;2023-02-07T11:36:50;0.70;93.50
3994;DHT22;2011;48.238;13.948;2023-02-07T11:39:20;0.70;92.90
3994;DHT22;2011;48.238;13.948;2023-02-07T11:41:53;0.70;92.90
3994;DHT22;2011;48.238;13.948;2023-02-07T11:44:25;0.80;92.90
3994;DHT22;2011;48.238;13.948;2023-02-07T11:46:55;0.80;92.70
3994;DHT22;2011;48.238;13.948;2023-02-07T11:49:25;0.80;92.20
3994;DHT22;2011;48.238;13.948;2023-02-07T11:51:54;0.80;92.10
3994;DHT22;2011;48.238;13.948;2023-02-07T11:54:23;0.90;92.20
3994;DHT22;2011;48.238;13.948;2023-02-07T11:56:52;0.90;91.90
3994;DHT22;2011;48.238;13.948;2023-02-07T11:59:26;1.00;91.50
3994;DHT22;2011;48.238;13.948;2023-02-07T12:01:56;1.00;91.30
3994;DHT22;2011;48.238;13.948;2023-02-07T12:04:26;1.10;91.70
3994;DHT22;2011;48.238;13.948;2023-02-07T12:06:56;1.20;91.70
3994;DHT22;2011;48.238;13.948;2023-02-07T12:09:32;1.20;91.90
3994;DHT22;2011;48.238;13.948;2023-02-07T12:12:02;1.30;91.70
3994;DHT22;2011;48.238;13.948;2023-02-07T12:14:34;1.40;91.30
3994;DHT22;2011;48.238;13.948;2023-02-07T12:17:05;1.40;90.90
3994;DHT22;2011;48.238;13.948;2023-02-07T12:19:40;1.40;90.80
3994;DHT22;2011;48.238;13.948;2023-02-07T12:22:14;1.50;90.70
3994;DHT22;2011;48.238;13.948;2023-02-07T12:24:47;1.50;90.10
3994;DHT22;2011;48.238;13.948;2023-02-07T12:27:18;1.40;88.60
3994;DHT22;2011;48.238;13.948;2023-02-07T12:29:57;1.50;89.30
3994;DHT22;2011;48.238;13.948;2023-02-07T12:32:34;1.60;87.90
3994;DHT22;2011;48.238;13.948;2023-02-07T12:35:13;1.50;86.10
3994;DHT22;2011;48.238;13.948;2023-02-07T12:37:44;1.50;87.30
3994;DHT22;2011;48.238;13.948;2023-02-07T12:40:20;1.50;87.20
3994;DHT22;2011;48.238;13.948;2023-02-07T12:42:54;1.50;85.60
3994;DHT22;2011;48.238;13.948;2023-02-07T12:45:33;1.50;85.20
3994;DHT22;2011;48.238;13.948;2023-02-07T12:48:10;1.60;85.80
3994;DHT22;2011;48.238;13.948;2023-02-07T12:50:51;1.60;85.60
3994;DHT22;2011;48.238;13.948;2023-02-07T12:53:32;1.60;85.40
3994;DHT22;2011;48.238;13.948;2023-02-07T12:56:18;1.60;85.60
3994;DHT22;2011;48.238;13.948;2023-02-07T12:58:53;1.70;85.30
3994;DHT22;2011;48.238;13.948;2023-02-07T13:01:28;1.70;86.00
3994;DHT22;2011;48.238;13.948;2023-02-07T13:04:29;1.80;85.20
3994;DHT22;2011;48.238;13.948;2023-02-07T13:07:08;1.80;84.70
3994;DHT22;2011;48.238;13.948;2023-02-07T13:09:44;1.90;85.30
3994;DHT22;2011;48.238;13.948;2023-02-07T13:12:18;2.00;85.30
3994;DHT22;2011;48.238;13.948;2023-02-07T13:15:01;2.10;85.50
3994;DHT22;2011;48.238;13.948;2023-02-07T13:17:38;2.10;84.30
3994;DHT22;2011;48.238;13.948;2023-02-07T13:20:18;2.10;84.50
3994;DHT22;2011;48.238;13.948;2023-02-07T13:22:51;2.20;83.60
3994;DHT22;2011;48.238;13.948;2023-02-07T13:25:22;2.10;83.30
3994;DHT22;2011;48.238;13.948;2023-02-07T13:27:52;2.20;83.50
3994;DHT22;2011;48.238;13.948;2023-02-07T13:30:21;2.20;83.70
3994;DHT22;2011;48.238;13.948;2023-02-07T13:32:49;2.20;84.40
3994;DHT22;2011;48.238;13.948;2023-02-07T13:35:19;2.30;84.50
3994;DHT22;2011;48.238;13.948;2023-02-07T13:37:49;2.30;84.50
3994;DHT22;2011;48.238;13.948;2023-02-07T13:40:29;2.30;82.70
3994;DHT22;2011;48.238;13.948;2023-02-07T13:43:04;2.30;82.30
3994;DHT22;2011;48.238;13.948;2023-02-07T13:45:39;2.40;83.20
3994;DHT22;2011;48.238;13.948;2023-02-07T13:48:15;2.40;83.80
3994;DHT22;2011;48.238;13.948;2023-02-07T13:50:50;2.40;82.60
3994;DHT22;2011;48.238;13.948;2023-02-07T13:53:38;2.50;83.30
3994;DHT22;2011;48.238;13.948;2023-02-07T13:56:09;2.50;80.90
3994;DHT22;2011;48.238;13.948;2023-02-07T13:58:58;2.50;82.30
3994;DHT22;2011;48.238;13.948;2023-02-07T14:01:52;2.60;84.70
3994;DHT22;2011;48.238;13.948;2023-02-07T14:04:21;2.70;84.30
3994;DHT22;2011;48.238;13.948;2023-02-07T14:06:59;2.80;84.80
3994;DHT22;2011;48.238;13.948;2023-02-07T14:09:32;2.90;83.30
3994;DHT22;2011;48.238;13.948;2023-02-07T14:12:01;2.90;84.40
3994;DHT22;2011;48.238;13.948;2023-02-07T14:14:35;2.80;82.60
3994;DHT22;2011;48.238;13.948;2023-02-07T14:17:04;2.80;83.50
3994;DHT22;2011;48.238;13.948;2023-02-07T14:19:49;2.90;84.30
3994;DHT22;2011;48.238;13.948;2023-02-07T14:22:19;2.90;84.00
3994;DHT22;2011;48.238;13.948;2023-02-07T14:25:17;3.00;83.70
3994;DHT22;2011;48.238;13.948;2023-02-07T14:28:06;3.00;82.40
3994;DHT22;2011;48.238;13.948;2023-02-07T14:30:37;2.90;81.80
3994;DHT22;2011;48.238;13.948;2023-02-07T14:33:21;3.00;83.10
3994;DHT22;2011;48.238;13.948;2023-02-07T14:39:04;3.00;82.90
3994;DHT22;2011;48.238;13.948;2023-02-07T14:41:33;3.00;82.20
3994;DHT22;2011;48.238;13.948;2023-02-07T14:44:04;3.00;83.40
3994;DHT22;2011;48.238;13.948;2023-02-07T14:46:36;3.00;83.40
3994;DHT22;2011;48.238;13.948;2023-02-07T14:49:10;3.10;83.20
3994;DHT22;2011;48.238;13.948;2023-02-07T14:51:42;3.10;83.40
3994;DHT22;2011;48.238;13.948;2023-02-07T14:54:16;3.00;82.90
3994;DHT22;2011;48.238;13.948;2023-02-07T14:56:48;3.00;82.60
3994;DHT22;2011;48.238;13.948;2023-02-07T14:59:24;3.00;82.80
3994;DHT22;2011;48.238;13.948;2023-02-07T15:01:54;2.90;82.70
3994;DHT22;2011;48.238;13.948;2023-02-07T15:04:21;2.90;82.90
3994;DHT22;2011;48.238;13.948;2023-02-07T15:06:48;2.80;83.00
3994;DHT22;2011;48.238;13.948;2023-02-07T15:09:22;2.80;83.30
3994;DHT22;2011;48.238;13.948;2023-02-07T15:11:50;2.80;82.80
3994;DHT22;2011;48.238;13.948;2023-02-07T15:14:30;2.70;82.80
3994;DHT22;2011;48.238;13.948;2023-02-07T15:16:58;2.70;83.40
3994;DHT22;2011;48.238;13.948;2023-02-07T15:19:30;2.70;83.90
3994;DHT22;2011;48.238;13.948;2023-02-07T15:21:58;2.70;83.80
3994;DHT22;2011;48.238;13.948;2023-02-07T15:24:27;2.70;84.10
3994;DHT22;2011;48.238;13.948;2023-02-07T15:26:57;2.70;83.80
3994;DHT22;2011;48.238;13.948;2023-02-07T15:29:26;2.70;83.70
3994;DHT22;2011;48.238;13.948;2023-02-07T15:31:53;2.70;83.30
3994;DHT22;2011;48.238;13.948;2023-02-07T15:34:23;2.70;83.10
3994;DHT22;2011;48.238;13.948;2023-02-07T15:36:57;2.70;83.20
3994;DHT22;2011;48.238;13.948;2023-02-07T15:39:26;2.70;83.60
3994;DHT22;2011;48.238;13.948;2023-02-07T15:41:55;2.70;82.70
3994;DHT22;2011;48.238;13.948;2023-02-07T15:44:24;2.70;82.80
3994;DHT22;2011;48.238;13.948;2023-02-07T15:46:52;2.60;83.50
3994;DHT22;2011;48.238;13.948;2023-02-07T15:49:39;2.60;82.80
3994;DHT22;2011;48.238;13.948;2023-02-07T15:52:12;2.70;82.30
3994;DHT22;2011;48.238;13.948;2023-02-07T15:54:44;2.60;82.90
3994;DHT22;2011;48.238;13.948;2023-02-07T15:57:21;2.50;83.00
3994;DHT22;2011;48.238;13.948;2023-02-07T15:59:49;2.50;82.70
3994;DHT22;2011;48.238;13.948;2023-02-07T16:02:23;2.40;83.00
3994;DHT22;2011;48.238;13.948;2023-02-07T16:04:52;2.30;82.70
3994;DHT22;2011;48.238;13.948;2023-02-07T16:07:21;2.10;82.90
3994;DHT22;2011;48.238;13.948;2023-02-07T16:09:48;1.90;83.20
3994;DHT22;2011;48.238;13.948;2023-02-07T16:12:32;1.80;83.90
3994;DHT22;2011;48.238;13.948;2023-02-07T16:15:23;1.70;84.30
3994;DHT22;2011;48.238;13.948;2023-02-07T16:17:50;1.60;84.20
3994;DHT22;2011;48.238;13.948;2023-02-07T16:20:19;1.50;84.70
3994;DHT22;2011;48.238;13.948;2023-02-07T16:22:47;1.40;85.70
3994;DHT22;2011;48.238;13.948;2023-02-07T16:25:17;1.30;85.00
3994;DHT22;2011;48.238;13.948;2023-02-07T16:27:46;1.20;84.80